Maersk Dispatcher — XJAJ — position and weather

sailwx.info

Track history (hours):
 
Tides and Currents Weather Stations Pressure Air Temp Water Temp Dewpoint Dewpoint Depression Visibility Wind Speed Wind Dir Waves Ship Positions

Maersk Dispatcher

Last reported at 2016-Jul-25 21:22 UTC. Time now 2016-Jul-26 12:14 UTC.
Position N 47°34' W 052°38'.

Length 89 m; draft 6.5 m.

Type: Other ship. MMSI: 316013080.

Date/timePositionNaut miles runAvg speedWind from/ knotsBaromVisibWave heightAir tempDewpointWater temp
2016-Jul-25 21:22N 47°34' W 052°38'2 2.9
2016-Jul-25 20:31N 47°34' W 052°42'0 0.0
2016-Jul-25 19:13N 47°34' W 052°42'0 0.0
2016-Jul-25 13:16N 47°34' W 052°42'0 0.0
2016-Jul-25 12:31N 47°34' W 052°42'5 2.5
2016-Jul-25 10:28N 47°33' W 052°34'5 0.1
2016-Jul-23 22:33N 47°32' W 052°28'10 9.6
2016-Jul-23 21:31N 47°34' W 052°42'0 0.0
2016-Jul-23 19:33N 47°34' W 052°42'0 0.0
2016-Jul-23 17:21N 47°34' W 052°42'0 0.0
2016-Jul-23 16:22N 47°34' W 052°42'  
Track history (hours):
 
Tides and Currents Weather Stations Pressure Air Temp Water Temp Dewpoint Dewpoint Depression Visibility Wind Speed Wind Dir Waves Ship Positions

Maersk Dispatcher

Last reported at 2016-Jul-25 21:22 UTC. Time now 2016-Jul-26 12:14 UTC.
Position N 47°34' W 052°38'.

Length 89 m; draft 6.5 m.

Type: Other ship. MMSI: 316013080.

Date/timePositionNaut miles runAvg speedWind from/ knotsBaromVisibWave heightAir tempDewpointWater temp
2016-Jul-25 21:22N 47°34' W 052°38'2 2.9
2016-Jul-25 20:31N 47°34' W 052°42'0 0.0
2016-Jul-25 19:13N 47°34' W 052°42'0 0.0
2016-Jul-25 13:16N 47°34' W 052°42'0 0.0
2016-Jul-25 12:31N 47°34' W 052°42'5 2.5
2016-Jul-25 10:28N 47°33' W 052°34'5 0.1
2016-Jul-23 22:33N 47°32' W 052°28'10 9.6
2016-Jul-23 21:31N 47°34' W 052°42'0 0.0
2016-Jul-23 19:33N 47°34' W 052°42'0 0.0
2016-Jul-23 17:21N 47°34' W 052°42'0 0.0
2016-Jul-23 16:22N 47°34' W 052°42'  

Dump ship's entire track history